createdAt,value
2019-01-06T00:00:40.881Z,14.53
2019-01-06T00:03:13.577Z,15.67
2019-01-06T00:05:49.061Z,15.33
2019-01-06T00:08:37.373Z,14.40
2019-01-06T00:11:08.921Z,17.23
2019-01-06T00:13:58.610Z,10.13
2019-01-06T00:16:39.078Z,15.33
2019-01-06T00:19:30.102Z,14.10
2019-01-06T00:22:19.209Z,16.40
2019-01-06T00:25:06.306Z,18.33
2019-01-06T00:27:49.486Z,15.20
2019-01-06T00:30:23.802Z,12.27
2019-01-06T00:33:10.274Z,11.57
2019-01-06T00:35:59.026Z,14.63
2019-01-06T00:38:39.760Z,14.20
2019-01-06T00:41:29.175Z,20.40
2019-01-06T00:44:10.521Z,14.60
2019-01-06T00:46:45.236Z,17.23
2019-01-06T00:49:32.630Z,13.17
2019-01-06T00:52:22.462Z,14.30
2019-01-06T00:54:54.047Z,14.40
2019-01-06T00:57:42.306Z,17.20
2019-01-06T01:00:20.661Z,14.57
2019-01-06T01:02:59.089Z,14.30
2019-01-06T01:05:51.154Z,21.00
2019-01-06T01:08:23.846Z,16.40
2019-01-06T01:10:54.914Z,17.27
2019-01-06T01:13:42.462Z,17.47
2019-01-06T01:16:30.433Z,18.77
2019-01-06T01:19:06.440Z,19.67
2019-01-06T01:21:55.423Z,17.47
2019-01-06T01:24:27.984Z,19.10
2019-01-06T01:27:13.977Z,21.27
2019-01-06T01:29:46.645Z,22.53
2019-01-06T01:32:28.538Z,18.20
2019-01-06T01:35:15.214Z,17.70
2019-01-06T01:37:59.686Z,21.23
2019-01-06T01:40:42.548Z,20.40
2019-01-06T01:43:23.457Z,21.40
2019-01-06T01:46:14.447Z,18.10
2019-01-06T01:48:54.930Z,19.30
2019-01-06T01:51:36.541Z,21.83
2019-01-06T01:54:27.004Z,12.77
2019-01-06T01:57:05.641Z,18.43
2019-01-06T01:59:42.865Z,18.30
2019-01-06T02:02:14.659Z,18.77
2019-01-06T02:05:04.159Z,19.37
2019-01-06T02:07:47.622Z,21.43
2019-01-06T02:10:21.329Z,17.90
2019-01-06T02:13:02.598Z,18.83
2019-01-06T02:15:39.584Z,18.60
2019-01-06T02:18:12.509Z,18.77
2019-01-06T02:20:57.565Z,17.03
2019-01-06T02:23:32.849Z,19.10
2019-01-06T02:26:14.561Z,17.60
2019-01-06T02:29:03.370Z,14.87
2019-01-06T02:31:38.773Z,15.63
2019-01-06T02:34:10.318Z,17.80
2019-01-06T02:36:59.743Z,18.50
2019-01-06T02:39:48.925Z,16.90
2019-01-06T02:42:37.710Z,19.00
2019-01-06T02:45:13.362Z,19.07
2019-01-06T02:47:49.099Z,20.23
2019-01-06T02:50:26.077Z,18.03
2019-01-06T02:53:10.499Z,28.17
2019-01-06T02:55:41.926Z,15.07
2019-01-06T02:58:30.828Z,19.40
2019-01-06T03:01:12.317Z,19.67
2019-01-06T03:03:53.961Z,17.37
2019-01-06T03:06:34.150Z,17.83
2019-01-06T03:09:08.665Z,20.43
2019-01-06T03:11:51.949Z,22.47
2019-01-06T03:14:26.806Z,20.43
2019-01-06T03:17:15.194Z,22.27
2019-01-06T03:20:04.111Z,16.00
2019-01-06T03:22:42.744Z,17.27
2019-01-06T03:25:20.588Z,15.77
2019-01-06T03:27:52.433Z,16.43
2019-01-06T03:30:24.308Z,11.10
2019-01-06T03:32:58.872Z,15.10
2019-01-06T03:35:44.839Z,17.70
2019-01-06T03:38:25.603Z,14.33
2019-01-06T03:41:04.568Z,16.00
2019-01-06T03:43:37.288Z,16.03
2019-01-06T03:46:12.387Z,18.50
2019-01-06T03:48:53.334Z,16.97
2019-01-06T03:51:37.827Z,15.17
2019-01-06T03:54:12.217Z,14.07
2019-01-06T03:57:02.502Z,13.70
2019-01-06T03:59:34.226Z,14.13
2019-01-06T04:02:23.153Z,16.77
2019-01-06T04:05:12.730Z,17.33
2019-01-06T04:07:45.772Z,15.33
2019-01-06T04:10:29.955Z,12.00
2019-01-06T04:13:18.533Z,15.07
2019-01-06T04:16:09.535Z,16.33
2019-01-06T04:18:53.396Z,15.83
2019-01-06T04:21:26.125Z,10.57
2019-01-06T04:24:14.169Z,11.03
2019-01-06T04:26:48.556Z,14.17
2019-01-06T04:29:29.382Z,15.00
2019-01-06T04:32:17.633Z,15.73
2019-01-06T04:34:50.381Z,10.50
2019-01-06T04:37:25.378Z,11.47
2019-01-06T04:40:15.708Z,13.50
2019-01-06T04:42:51.146Z,12.83
2019-01-06T04:45:42.457Z,13.37
2019-01-06T04:48:31.654Z,11.53
2019-01-06T04:51:14.802Z,18.80
2019-01-06T04:54:02.116Z,13.03
2019-01-06T04:56:42.346Z,12.80
2019-01-06T04:59:14.933Z,16.47
2019-01-06T05:01:47.720Z,14.27
2019-01-06T05:04:20.525Z,18.77
2019-01-06T05:06:55.955Z,11.67
2019-01-06T05:09:31.508Z,12.17
2019-01-06T05:12:13.787Z,12.07
2019-01-06T05:15:02.177Z,11.63
2019-01-06T05:17:37.702Z,16.90
2019-01-06T05:20:18.349Z,11.70
2019-01-06T05:22:52.069Z,13.67
2019-01-06T05:25:29.616Z,17.73
2019-01-06T05:28:07.201Z,13.13
2019-01-06T05:30:48.400Z,20.80
2019-01-06T05:33:22.338Z,12.30
2019-01-06T05:36:02.462Z,17.33
2019-01-06T05:38:36.595Z,15.77
2019-01-06T05:41:14.330Z,17.07
2019-01-06T05:44:01.445Z,16.17
2019-01-06T05:46:40.013Z,14.90
2019-01-06T05:49:29.841Z,16.60
2019-01-06T05:52:17.569Z,20.47
2019-01-06T05:55:09.215Z,12.30
2019-01-06T05:57:43.277Z,15.27
2019-01-06T06:00:21.989Z,16.60
2019-01-06T06:03:03.718Z,12.97
2019-01-06T06:05:36.793Z,16.83
2019-01-06T06:08:21.545Z,16.43
2019-01-06T06:10:56.669Z,14.70
2019-01-06T06:13:31.935Z,14.63
2019-01-06T06:16:06.213Z,20.23
2019-01-06T06:18:54.271Z,20.63
2019-01-06T06:21:42.539Z,22.53
2019-01-06T06:24:30.922Z,19.60
2019-01-06T06:27:09.393Z,20.70
2019-01-06T06:29:50.826Z,16.97
2019-01-06T06:32:40.811Z,13.47
2019-01-06T06:35:29.862Z,19.10
2019-01-06T06:38:14.889Z,21.23
2019-01-06T06:40:49.281Z,15.20
2019-01-06T06:43:21.115Z,19.17
2019-01-06T06:46:11.852Z,19.53
2019-01-06T06:49:02.713Z,18.00
2019-01-06T06:51:35.462Z,11.80
2019-01-06T06:54:24.301Z,13.33
2019-01-06T06:57:16.562Z,17.10
2019-01-06T07:00:06.274Z,16.67
2019-01-06T07:02:45.185Z,12.73
2019-01-06T07:05:32.778Z,15.83
2019-01-06T07:08:04.625Z,16.43
2019-01-06T07:10:51.646Z,15.67
2019-01-06T07:13:44.626Z,14.73
2019-01-06T07:16:51.186Z,14.33
2019-01-06T07:19:26.382Z,12.80
2019-01-06T07:22:01.502Z,18.10
2019-01-06T07:24:35.878Z,16.73
2019-01-06T07:27:07.649Z,19.93
2019-01-06T07:29:44.657Z,18.33
2019-01-06T07:32:18.562Z,18.33
2019-01-06T07:34:52.433Z,14.97
2019-01-06T07:37:36.893Z,21.30
2019-01-06T07:40:25.398Z,17.83
2019-01-06T07:42:57.769Z,15.90
2019-01-06T07:45:35.477Z,20.63
2019-01-06T07:48:10.998Z,19.27
2019-01-06T07:50:58.789Z,20.10
2019-01-06T07:53:35.243Z,17.20
2019-01-06T07:56:15.882Z,18.03
2019-01-06T07:58:54.106Z,17.63
2019-01-06T08:01:37.377Z,16.17
2019-01-06T08:04:11.409Z,20.13
2019-01-06T08:06:44.107Z,20.20
2019-01-06T08:09:21.862Z,16.27
2019-01-06T08:12:09.773Z,21.50
2019-01-06T08:14:41.656Z,24.50
2019-01-06T08:17:17.078Z,21.00
2019-01-06T08:19:49.362Z,15.13
2019-01-06T08:22:22.009Z,18.30
2019-01-06T08:24:54.765Z,18.37
2019-01-06T08:27:32.277Z,16.50
2019-01-06T08:30:21.716Z,19.43
2019-01-06T08:33:05.465Z,19.17
2019-01-06T08:35:53.419Z,19.67
2019-01-06T08:38:41.360Z,14.40
2019-01-06T08:41:13.229Z,18.33
2019-01-06T08:43:45.957Z,12.30
2019-01-06T08:46:23.138Z,15.77
2019-01-06T08:48:55.868Z,22.30
2019-01-06T08:51:27.665Z,18.30
2019-01-06T08:54:08.171Z,17.53
2019-01-06T08:56:48.580Z,18.07
2019-01-06T08:59:24.192Z,17.60
2019-01-06T09:02:10.633Z,17.63
2019-01-06T09:04:42.366Z,15.97
2019-01-06T09:07:23.583Z,13.80
2019-01-06T09:09:55.282Z,14.50
2019-01-06T09:12:45.310Z,18.47
2019-01-06T09:15:26.512Z,15.27
2019-01-06T09:18:14.877Z,14.63
2019-01-06T09:20:49.981Z,16.93
2019-01-06T09:23:27.487Z,15.37
2019-01-06T09:26:15.421Z,14.93
2019-01-06T09:28:55.783Z,14.47
2019-01-06T09:31:39.828Z,15.87
2019-01-06T09:34:28.634Z,15.10
2019-01-06T09:37:17.408Z,14.87
2019-01-06T09:39:49.310Z,14.30
2019-01-06T09:42:21.154Z,14.73
2019-01-06T09:45:02.936Z,13.97
2019-01-06T09:47:40.389Z,14.10
2019-01-06T09:50:30.845Z,17.40
2019-01-06T09:53:18.806Z,16.93
2019-01-06T09:56:08.829Z,12.23
2019-01-06T09:58:59.600Z,15.17
2019-01-06T10:01:31.454Z,15.53
2019-01-06T10:04:18.557Z,18.07
2019-01-06T10:07:07.268Z,14.30
2019-01-06T10:09:38.304Z,14.23
2019-01-06T10:12:18.441Z,14.90
2019-01-06T10:14:52.048Z,11.83
2019-01-06T10:17:35.417Z,13.53
2019-01-06T10:20:13.554Z,12.33
2019-01-06T10:22:58.343Z,12.27
2019-01-06T10:25:31.812Z,12.13
2019-01-06T10:28:10.470Z,12.63
2019-01-06T10:30:56.494Z,13.80
2019-01-06T10:33:46.893Z,12.93
2019-01-06T10:36:18.752Z,13.87
2019-01-06T10:39:06.714Z,14.40
2019-01-06T10:41:50.465Z,15.43
2019-01-06T10:44:34.178Z,16.57
2019-01-06T10:47:05.496Z,16.43
2019-01-06T10:49:39.949Z,12.30
2019-01-06T10:52:27.313Z,14.80
2019-01-06T10:55:02.627Z,11.87
2019-01-06T10:57:37.834Z,13.50
2019-01-06T11:00:26.313Z,12.67
2019-01-06T11:03:04.659Z,10.37
2019-01-06T11:05:40.182Z,11.17
2019-01-06T11:08:32.830Z,12.63
2019-01-06T11:11:13.767Z,10.53
2019-01-06T11:14:00.482Z,11.10
2019-01-06T11:16:37.962Z,13.50
2019-01-06T11:19:10.782Z,12.60
2019-01-06T11:21:47.802Z,14.77
2019-01-06T11:24:36.853Z,16.90
2019-01-06T11:27:23.670Z,11.33
2019-01-06T11:30:12.877Z,15.67
2019-01-06T11:32:47.456Z,12.90
2019-01-06T11:35:24.372Z,13.00
2019-01-06T11:37:59.540Z,13.77
2019-01-06T11:40:46.186Z,13.00
2019-01-06T11:43:21.037Z,11.13
2019-01-06T11:45:56.053Z,10.93
2019-01-06T11:48:31.390Z,12.33
2019-01-06T11:51:07.094Z,13.00
2019-01-06T11:53:56.182Z,12.00
2019-01-06T11:56:34.778Z,15.07
2019-01-06T11:59:10.069Z,14.07
2019-01-06T12:01:42.758Z,12.47
2019-01-06T12:04:14.632Z,16.73
2019-01-06T12:06:49.106Z,13.37
2019-01-06T12:09:21.608Z,14.63
2019-01-06T12:12:05.086Z,13.20
2019-01-06T12:14:46.745Z,12.13
2019-01-06T12:17:31.914Z,13.30
2019-01-06T12:20:19.742Z,11.07
2019-01-06T12:22:51.602Z,13.10
2019-01-06T12:25:26.521Z,9.27
2019-01-06T12:28:01.201Z,10.07
2019-01-06T12:30:33.885Z,9.60
2019-01-06T12:33:24.562Z,12.30
2019-01-06T12:36:15.577Z,9.37
2019-01-06T12:38:48.446Z,9.90
2019-01-06T12:41:36.408Z,11.03
2019-01-06T12:44:12.269Z,8.07
2019-01-06T12:46:59.879Z,8.73
2019-01-06T12:49:41.462Z,7.37
2019-01-06T12:52:22.245Z,11.07
2019-01-06T12:55:10.485Z,9.00
2019-01-06T12:57:59.917Z,9.80
2019-01-06T13:00:42.021Z,6.57
2019-01-06T13:03:32.162Z,8.23
2019-01-06T13:06:06.600Z,8.30
2019-01-06T13:08:55.648Z,10.67
2019-01-06T13:11:30.339Z,26.90
2019-01-06T13:14:04.995Z,19.40
2019-01-06T13:16:37.798Z,12.93
2019-01-06T13:19:26.897Z,20.67
2019-01-06T13:22:02.434Z,11.20
2019-01-06T13:24:37.910Z,11.33
2019-01-06T13:27:28.582Z,15.00
2019-01-06T13:30:17.714Z,14.67
2019-01-06T13:32:50.647Z,14.33
2019-01-06T13:35:38.490Z,10.73
2019-01-06T13:38:22.474Z,8.57
2019-01-06T13:41:02.825Z,6.43
2019-01-06T13:43:47.647Z,10.17
2019-01-06T13:46:37.059Z,9.47
2019-01-06T13:49:27.723Z,7.37
2019-01-06T13:52:18.601Z,11.57
2019-01-06T13:55:04.681Z,6.63
2019-01-06T13:57:52.593Z,9.83
2019-01-06T14:00:25.442Z,12.80
2019-01-06T14:03:13.585Z,10.30
2019-01-06T14:06:03.869Z,7.60
2019-01-06T14:08:50.533Z,6.97
2019-01-06T14:11:42.602Z,10.13
2019-01-06T14:14:26.218Z,7.63
2019-01-06T14:17:03.332Z,10.27
2019-01-06T14:19:41.543Z,12.07
2019-01-06T14:22:29.426Z,8.93
2019-01-06T14:25:01.278Z,8.67
2019-01-06T14:27:36.885Z,10.20
2019-01-06T14:30:11.623Z,8.33
2019-01-06T14:32:43.443Z,10.10
2019-01-06T14:35:19.729Z,13.47
2019-01-06T14:38:07.662Z,9.17
2019-01-06T14:40:40.458Z,8.40
2019-01-06T14:43:20.929Z,7.40
2019-01-06T14:45:59.577Z,7.40
2019-01-06T14:48:49.334Z,4.10
2019-01-06T14:51:30.754Z,8.77
2019-01-06T14:54:06.067Z,7.70
2019-01-06T14:56:40.513Z,8.00
2019-01-06T14:59:28.420Z,9.37
2019-01-06T15:02:06.880Z,9.43
2019-01-06T15:04:50.838Z,7.80
2019-01-06T15:07:38.978Z,6.27
2019-01-06T15:10:16.355Z,7.97
2019-01-06T15:13:05.706Z,10.53
2019-01-06T15:15:53.633Z,8.30
2019-01-06T15:18:43.712Z,7.80
2019-01-06T15:21:25.106Z,8.07
2019-01-06T15:24:09.377Z,6.10
2019-01-06T15:26:47.207Z,7.67
2019-01-06T15:29:21.783Z,8.17
2019-01-06T15:31:57.330Z,9.83
2019-01-06T15:34:47.266Z,9.67
2019-01-06T15:37:29.241Z,7.07
2019-01-06T15:40:07.719Z,9.80
2019-01-06T15:42:56.582Z,12.97
2019-01-06T15:45:37.982Z,9.77
2019-01-06T15:48:15.921Z,11.50
2019-01-06T15:50:50.269Z,10.83
2019-01-06T15:53:23.062Z,15.43
2019-01-06T15:56:07.737Z,10.50
2019-01-06T15:58:51.778Z,11.57
2019-01-06T16:01:25.525Z,21.43
2019-01-06T16:04:12.347Z,14.97
2019-01-06T16:06:54.356Z,17.83
2019-01-06T16:09:28.841Z,13.80
2019-01-06T16:12:07.379Z,12.37
2019-01-06T16:14:46.003Z,14.10
2019-01-06T16:17:36.905Z,12.63
2019-01-06T16:20:21.517Z,14.93
2019-01-06T16:23:07.307Z,15.47
2019-01-06T16:25:41.867Z,12.97
2019-01-06T16:28:15.409Z,11.97
2019-01-06T16:30:55.514Z,14.97
2019-01-06T16:33:34.141Z,11.57
2019-01-06T16:36:26.829Z,13.90
2019-01-06T16:38:59.609Z,18.57
2019-01-06T16:41:47.137Z,14.43
2019-01-06T16:44:25.729Z,12.83
2019-01-06T16:47:04.408Z,13.93
2019-01-06T16:49:36.226Z,16.87
2019-01-06T16:52:15.191Z,14.73
2019-01-06T16:54:46.258Z,15.23
2019-01-06T16:57:27.630Z,16.07
2019-01-06T17:00:04.165Z,15.57
2019-01-06T17:02:47.461Z,19.37
2019-01-06T17:05:35.818Z,18.97
2019-01-06T17:08:20.978Z,19.53
2019-01-06T17:10:58.446Z,20.57
2019-01-06T17:13:32.915Z,21.60
2019-01-06T17:16:07.435Z,20.40
2019-01-06T17:18:41.899Z,19.77
2019-01-06T17:21:30.557Z,22.60
2019-01-06T17:24:08.486Z,19.17
2019-01-06T17:26:53.397Z,20.00
2019-01-06T17:29:28.745Z,21.07
2019-01-06T17:32:01.009Z,20.17
2019-01-06T17:34:38.313Z,25.50
2019-01-06T17:37:28.200Z,22.67
2019-01-06T17:40:01.846Z,22.63
2019-01-06T17:42:46.189Z,18.83
2019-01-06T17:45:24.733Z,23.70
2019-01-06T17:47:56.828Z,24.53
2019-01-06T17:50:38.073Z,21.43
2019-01-06T17:53:10.884Z,20.23
2019-01-06T17:56:01.130Z,20.53
2019-01-06T17:58:33.943Z,22.27
2019-01-06T18:01:15.350Z,22.23
2019-01-06T18:03:47.299Z,22.80
2019-01-06T18:06:38.863Z,21.70
2019-01-06T18:09:20.693Z,20.67
2019-01-06T18:12:07.398Z,25.00
2019-01-06T18:14:46.043Z,24.63
2019-01-06T18:17:24.823Z,25.43
2019-01-06T18:20:09.550Z,23.67
2019-01-06T18:22:49.372Z,29.57
2019-01-06T18:25:39.065Z,29.93
2019-01-06T18:28:29.773Z,26.27
2019-01-06T18:31:05.781Z,24.87
2019-01-06T18:33:37.647Z,24.33
2019-01-06T18:36:11.924Z,23.23
2019-01-06T18:39:01.609Z,19.93
2019-01-06T18:41:50.351Z,23.40
2019-01-06T18:44:35.262Z,21.60
2019-01-06T18:47:07.591Z,20.07
2019-01-06T18:49:40.475Z,23.43
2019-01-06T18:52:12.322Z,23.73
2019-01-06T18:55:00.375Z,24.33
2019-01-06T18:57:48.533Z,25.17
2019-01-06T19:00:24.179Z,23.47
2019-01-06T19:03:14.575Z,26.80
2019-01-06T19:05:46.845Z,25.67
2019-01-06T19:08:34.141Z,24.30
2019-01-06T19:11:25.320Z,24.83
2019-01-06T19:13:57.256Z,26.50
2019-01-06T19:16:29.377Z,31.63
2019-01-06T19:19:01.510Z,25.67
2019-01-06T19:21:52.558Z,26.03
2019-01-06T19:24:36.026Z,26.83
2019-01-06T19:27:13.549Z,28.73
2019-01-06T19:29:57.481Z,30.10
2019-01-06T19:32:45.347Z,26.97
2019-01-06T19:35:32.069Z,36.23
2019-01-06T19:38:10.512Z,28.17
2019-01-06T19:40:52.296Z,30.57
2019-01-06T19:43:41.621Z,29.20
2019-01-06T19:46:19.278Z,33.23
2019-01-06T19:48:50.690Z,31.33
2019-01-06T19:51:34.529Z,28.77
2019-01-06T19:54:18.122Z,28.73
2019-01-06T19:56:52.749Z,30.40
2019-01-06T19:59:40.764Z,25.97
2019-01-06T20:02:24.935Z,38.00
2019-01-06T20:04:59.517Z,27.20
2019-01-06T20:07:48.538Z,28.63
2019-01-06T20:10:21.310Z,30.30
2019-01-06T20:12:55.823Z,31.03
2019-01-06T20:15:31.766Z,27.43
2019-01-06T20:18:15.326Z,29.73
2019-01-06T20:20:49.917Z,33.17
2019-01-06T20:23:39.730Z,30.13
2019-01-06T20:26:11.609Z,33.37
2019-01-06T20:28:55.681Z,24.77
2019-01-06T20:31:29.937Z,26.93
2019-01-06T20:34:07.355Z,29.77
2019-01-06T20:36:47.982Z,27.90
2019-01-06T20:39:35.333Z,29.03
2019-01-06T20:42:19.958Z,27.17
2019-01-06T20:45:00.781Z,31.43
2019-01-06T20:47:43.904Z,27.80
2019-01-06T20:50:19.404Z,26.27
2019-01-06T20:52:52.153Z,27.77
2019-01-06T20:55:30.647Z,24.20
2019-01-06T20:58:10.857Z,26.03
2019-01-06T21:01:01.627Z,27.87
2019-01-06T21:03:46.135Z,28.97
2019-01-06T21:06:18.527Z,26.63
2019-01-06T21:08:52.777Z,27.50
2019-01-06T21:11:41.129Z,25.77
2019-01-06T21:14:15.533Z,27.63
2019-01-06T21:16:49.981Z,28.43
2019-01-06T21:19:22.829Z,25.17
2019-01-06T21:22:04.072Z,25.87
2019-01-06T21:24:36.764Z,26.60
2019-01-06T21:27:15.115Z,30.33
2019-01-06T21:30:03.822Z,26.77
2019-01-06T21:32:51.077Z,23.50
2019-01-06T21:35:40.324Z,28.23
2019-01-06T21:38:14.821Z,26.33
2019-01-06T21:40:52.243Z,30.83
2019-01-06T21:43:31.173Z,26.60
2019-01-06T21:46:20.523Z,26.23
2019-01-06T21:48:59.349Z,29.60
2019-01-06T21:51:30.430Z,27.83
2019-01-06T21:54:13.431Z,40.30
2019-01-06T21:57:02.569Z,28.90
2019-01-06T21:59:38.107Z,35.93
2019-01-06T22:02:18.402Z,36.87
2019-01-06T22:04:51.127Z,34.27
2019-01-06T22:07:25.830Z,33.33
2019-01-06T22:10:00.051Z,36.77
2019-01-06T22:12:49.044Z,31.57
2019-01-06T22:15:33.972Z,31.50
2019-01-06T22:18:05.845Z,30.03
2019-01-06T22:20:50.693Z,35.03
2019-01-06T22:23:39.966Z,27.27
2019-01-06T22:26:28.021Z,34.40
2019-01-06T22:29:12.946Z,33.50
2019-01-06T22:32:01.527Z,28.83
2019-01-06T22:34:50.522Z,31.43
2019-01-06T22:37:22.481Z,32.00
2019-01-06T22:40:10.878Z,29.60
2019-01-06T22:42:48.006Z,29.40
2019-01-06T22:45:31.649Z,32.37
2019-01-06T22:48:24.325Z,32.47
2019-01-06T22:51:15.091Z,34.00
2019-01-06T22:54:03.147Z,31.33
2019-01-06T22:56:54.025Z,33.03
2019-01-06T22:59:28.517Z,32.83
2019-01-06T23:02:16.641Z,31.10
2019-01-06T23:04:49.477Z,34.67
2019-01-06T23:07:30.850Z,35.03
2019-01-06T23:10:16.189Z,28.00
2019-01-06T23:13:05.045Z,31.17
2019-01-06T23:15:52.425Z,34.23
2019-01-06T23:18:34.196Z,34.23
2019-01-06T23:21:06.066Z,34.50
2019-01-06T23:23:52.207Z,29.77
2019-01-06T23:26:42.286Z,37.10
2019-01-06T23:29:16.848Z,32.67
2019-01-06T23:31:52.365Z,32.17
2019-01-06T23:34:27.157Z,46.30
2019-01-06T23:37:08.733Z,34.40
2019-01-06T23:39:50.206Z,40.87
2019-01-06T23:42:21.481Z,35.77
2019-01-06T23:45:10.721Z,36.30
2019-01-06T23:48:01.669Z,32.77
2019-01-06T23:50:36.165Z,38.00
2019-01-06T23:53:10.954Z,36.83
2019-01-06T23:55:42.445Z,34.07
2019-01-06T23:58:20.746Z,34.80
